createdAt,value
2018-05-06T00:01:04.924Z,101496
2018-05-06T00:03:33.126Z,101498
2018-05-06T00:06:01.305Z,101496
2018-05-06T00:08:35.941Z,101493
2018-05-06T00:11:04.119Z,101488
2018-05-06T00:13:32.397Z,101489
2018-05-06T00:16:00.587Z,101495
2018-05-06T00:18:36.181Z,101493
2018-05-06T00:21:04.456Z,101501
2018-05-06T00:23:38.816Z,101501
2018-05-06T00:26:08.525Z,101495
2018-05-06T00:28:37.496Z,101506
2018-05-06T00:31:05.800Z,101494
2018-05-06T00:33:34.788Z,101490
2018-05-06T00:36:03.750Z,101498
2018-05-06T00:38:38.627Z,101482
2018-05-06T00:41:06.835Z,101485
2018-05-06T00:43:35.066Z,101485
2018-05-06T00:46:04.101Z,101477
2018-05-06T00:48:32.309Z,101476
2018-05-06T00:54:01.345Z,101481
2018-05-06T00:56:30.285Z,101491
2018-05-06T00:58:58.498Z,101488
2018-05-06T01:01:26.769Z,101485
2018-05-06T01:03:54.946Z,101479
2018-05-06T01:06:36.238Z,101490
2018-05-06T01:09:05.319Z,101481
2018-05-06T01:11:34.291Z,101480
2018-05-06T01:14:02.582Z,101488
2018-05-06T01:16:30.853Z,101497
2018-05-06T01:21:59.617Z,101498
2018-05-06T01:24:27.820Z,101501
2018-05-06T01:29:56.850Z,101502
2018-05-06T01:32:37.774Z,101510
2018-05-06T01:35:05.989Z,101506
2018-05-06T01:37:37.759Z,101498
2018-05-06T01:40:34.905Z,101489
2018-05-06T01:43:03.898Z,101490
2018-05-06T01:45:32.841Z,101473
2018-05-06T01:51:02.500Z,101478
2018-05-06T01:53:30.681Z,101476
2018-05-06T01:55:58.891Z,101478
2018-05-06T01:58:37.689Z,101471
2018-05-06T02:01:06.669Z,101469
2018-05-06T02:03:34.889Z,101474
2018-05-06T02:06:03.072Z,101469
2018-05-06T02:08:31.294Z,101475
2018-05-06T02:10:59.477Z,101471
2018-05-06T02:13:27.717Z,101481
2018-05-06T02:18:56.601Z,101476
2018-05-06T02:21:24.846Z,101469
2018-05-06T02:23:53.834Z,101473
2018-05-06T02:26:22.020Z,101460
2018-05-06T02:31:51.636Z,101469
2018-05-06T02:34:19.853Z,101483
2018-05-06T02:36:48.073Z,101486
2018-05-06T02:39:16.347Z,101491
2018-05-06T02:41:44.540Z,101486
2018-05-06T02:47:05.445Z,101477
2018-05-06T02:49:34.398Z,101466
2018-05-06T02:55:02.934Z,101468
2018-05-06T02:57:36.504Z,101465
2018-05-06T03:00:04.716Z,101461
2018-05-06T03:02:32.977Z,101465
2018-05-06T03:05:01.167Z,101461
2018-05-06T03:07:30.922Z,101465
2018-05-06T03:09:59.142Z,101474
2018-05-06T03:12:36.033Z,101488
2018-05-06T03:15:05.024Z,101495
2018-05-06T03:17:33.981Z,101503
2018-05-06T03:20:02.215Z,101495
2018-05-06T03:22:30.392Z,101491
2018-05-06T03:27:59.052Z,101494
2018-05-06T03:30:27.341Z,101494
2018-05-06T03:32:55.525Z,101495
2018-05-06T03:35:24.601Z,101500
2018-05-06T03:37:54.298Z,101493
2018-05-06T03:40:22.591Z,101502
2018-05-06T03:42:51.669Z,101502
2018-05-06T03:45:19.958Z,101498
2018-05-06T03:47:48.919Z,101493
2018-05-06T03:50:17.102Z,101492
2018-05-06T03:52:45.394Z,101495
2018-05-06T03:55:14.411Z,101499
2018-05-06T03:58:01.208Z,101495
2018-05-06T04:00:42.325Z,101493
2018-05-06T04:03:36.631Z,101491
2018-05-06T04:06:04.823Z,101486
2018-05-06T04:08:36.536Z,101492
2018-05-06T04:11:04.728Z,101482
2018-05-06T04:13:33.004Z,101485
2018-05-06T04:16:01.194Z,101485
2018-05-06T04:18:29.382Z,101485
2018-05-06T04:20:58.409Z,101494
2018-05-06T04:23:36.982Z,101490
2018-05-06T04:26:05.224Z,101494
2018-05-06T04:28:33.456Z,101494
2018-05-06T04:31:01.664Z,101498
2018-05-06T04:33:29.914Z,101497
2018-05-06T04:35:59.120Z,101501
2018-05-06T04:38:27.436Z,101501
2018-05-06T04:40:55.750Z,101518
2018-05-06T04:43:24.031Z,101519
2018-05-06T04:45:52.304Z,101515
2018-05-06T04:48:22.099Z,101521
2018-05-06T04:50:50.395Z,101508
2018-05-06T04:53:19.444Z,101518
2018-05-06T04:55:47.719Z,101513
2018-05-06T04:58:35.410Z,101520
2018-05-06T05:01:04.444Z,101517
2018-05-06T05:03:36.557Z,101513
2018-05-06T05:06:04.765Z,101507
2018-05-06T05:08:33.004Z,101504
2018-05-06T05:11:01.285Z,101511
2018-05-06T05:13:30.475Z,101512
2018-05-06T05:15:58.668Z,101510
2018-05-06T05:18:36.387Z,101521
2018-05-06T05:21:04.601Z,101516
2018-05-06T05:23:32.900Z,101517
2018-05-06T05:29:02.113Z,101526
2018-05-06T05:31:36.968Z,101525
2018-05-06T05:34:34.934Z,101527
2018-05-06T05:40:34.898Z,101526
2018-05-06T05:46:34.839Z,101532
2018-05-06T05:52:04.207Z,101532
2018-05-06T05:54:38.368Z,101537
2018-05-06T05:57:36.230Z,101537
2018-05-06T06:00:04.409Z,101536
2018-05-06T06:02:39.087Z,101534
2018-05-06T06:05:35.539Z,101542
2018-05-06T06:11:15.377Z,101531
2018-05-06T06:13:43.658Z,101533
2018-05-06T06:16:13.402Z,101530
2018-05-06T06:21:42.259Z,101532
2018-05-06T06:24:36.442Z,101538
2018-05-06T06:27:35.573Z,101539
2018-05-06T06:30:04.623Z,101544
2018-05-06T06:32:39.158Z,101539
2018-05-06T06:35:34.811Z,101541
2018-05-06T06:38:03.791Z,101544
2018-05-06T06:40:38.609Z,101542
2018-05-06T06:43:35.452Z,101541
2018-05-06T06:46:03.729Z,101543
2018-05-06T06:48:38.122Z,101546
2018-05-06T06:51:35.306Z,101544
2018-05-06T06:54:03.577Z,101548
2018-05-06T06:56:37.764Z,101544
2018-05-06T06:59:05.971Z,101551
2018-05-06T07:01:37.825Z,101553
2018-05-06T07:04:06.001Z,101543
2018-05-06T07:06:37.616Z,101543
2018-05-06T07:09:36.510Z,101548
2018-05-06T07:12:04.727Z,101547
2018-05-06T07:14:36.785Z,101550
2018-05-06T07:17:06.490Z,101547
2018-05-06T07:19:38.259Z,101540
2018-05-06T07:26:37.160Z,101545
2018-05-06T07:29:36.178Z,101542
2018-05-06T07:32:04.454Z,101548
2018-05-06T07:34:37.288Z,101553
2018-05-06T07:37:36.020Z,101543
2018-05-06T07:40:05.761Z,101550
2018-05-06T07:42:37.754Z,101548
2018-05-06T07:45:36.128Z,101551
2018-05-06T07:48:04.494Z,101548
2018-05-06T07:50:32.672Z,101544
2018-05-06T07:56:01.874Z,101541
2018-05-06T07:58:30.061Z,101542
2018-05-06T08:00:58.299Z,101534
2018-05-06T08:03:37.902Z,101542
2018-05-06T08:09:35.468Z,101538
2018-05-06T08:19:55.002Z,101530
2018-05-06T08:27:35.586Z,101536
2018-05-06T08:33:21.496Z,101524
2018-05-06T08:35:49.685Z,101519
2018-05-06T08:41:36.251Z,101520
2018-05-06T08:47:35.507Z,101509
2018-05-06T08:56:35.255Z,101509
2018-05-06T09:02:25.494Z,101505
2018-05-06T09:07:54.934Z,101511
2018-05-06T09:13:36.392Z,101514
2018-05-06T09:19:35.129Z,101517
2018-05-06T09:29:39.679Z,101511
2018-05-06T09:32:35.615Z,101513
2018-05-06T09:35:03.817Z,101512
2018-05-06T09:37:32.160Z,101523
2018-05-06T09:40:00.411Z,101529
2018-05-06T09:42:28.599Z,101532
2018-05-06T09:47:57.275Z,101515
2018-05-06T09:50:25.451Z,101511
2018-05-06T09:52:53.658Z,101513
2018-05-06T09:55:21.849Z,101510
2018-05-06T09:57:50.096Z,101511
2018-05-06T10:00:18.384Z,101510
2018-05-06T10:02:46.561Z,101505
2018-05-06T10:05:14.869Z,101501
2018-05-06T10:07:43.055Z,101503
2018-05-06T10:10:37.666Z,101510
2018-05-06T10:13:06.730Z,101502
2018-05-06T10:15:34.915Z,101510
2018-05-06T10:18:03.874Z,101507
2018-05-06T10:20:32.164Z,101508
2018-05-06T10:23:01.119Z,101505
2018-05-06T10:25:29.294Z,101505
2018-05-06T10:27:57.477Z,101501
2018-05-06T10:30:25.686Z,101500
2018-05-06T10:32:55.376Z,101498
2018-05-06T10:35:23.635Z,101499
2018-05-06T10:37:51.811Z,101496
2018-05-06T10:40:19.992Z,101495
2018-05-06T10:42:48.242Z,101483
2018-05-06T10:45:16.466Z,101485
2018-05-06T10:47:45.145Z,101484
2018-05-06T10:50:14.150Z,101486
2018-05-06T10:52:43.138Z,101481
2018-05-06T10:55:37.626Z,101476
2018-05-06T10:58:06.610Z,101471
2018-05-06T11:00:34.807Z,101479
2018-05-06T11:03:03.981Z,101478
2018-05-06T11:05:32.161Z,101476
2018-05-06T11:08:00.338Z,101475
2018-05-06T11:10:28.652Z,101480
2018-05-06T11:12:56.755Z,101472
2018-05-06T11:15:24.963Z,101467
2018-05-06T11:17:53.795Z,101461
2018-05-06T11:20:36.503Z,101454
2018-05-06T11:23:04.692Z,101455
2018-05-06T11:25:32.914Z,101448
2018-05-06T11:28:01.156Z,101447
2018-05-06T11:30:29.346Z,101451
2018-05-06T11:32:57.641Z,101449
2018-05-06T11:35:26.712Z,101448
2018-05-06T11:37:54.918Z,101457
2018-05-06T11:40:23.898Z,101443
2018-05-06T11:42:52.166Z,101439
2018-05-06T11:45:37.497Z,101435
2018-05-06T11:48:35.777Z,101428
2018-05-06T11:51:03.997Z,101430
2018-05-06T11:53:32.238Z,101433
2018-05-06T12:13:37.604Z,101416
2018-05-06T12:19:35.850Z,101403
2018-05-06T12:31:35.894Z,101398
2018-05-06T12:37:36.134Z,101397
2018-05-06T12:49:20.423Z,101380
2018-05-06T12:51:48.604Z,101383
2018-05-06T12:57:37.932Z,101375
2018-05-06T13:00:35.950Z,101376
2018-05-06T13:09:35.922Z,101374
2018-05-06T13:15:04.041Z,101361
2018-05-06T13:17:38.977Z,101361
2018-05-06T13:20:37.014Z,101361
2018-05-06T13:23:35.815Z,101360
2018-05-06T13:29:35.366Z,101339
2018-05-06T13:38:35.806Z,101340
2018-05-06T13:44:35.606Z,101336
2018-05-06T13:47:04.636Z,101329
2018-05-06T13:49:32.814Z,101338
2018-05-06T13:52:01.113Z,101330
2018-05-06T13:54:29.423Z,101329
2018-05-06T13:56:58.486Z,101336
2018-05-06T13:59:26.783Z,101329
2018-05-06T14:01:55.048Z,101330
2018-05-06T14:04:36.458Z,101337
2018-05-06T14:07:05.411Z,101331
2018-05-06T14:09:33.653Z,101321
2018-05-06T14:12:01.988Z,101329
2018-05-06T14:14:37.683Z,101316
2018-05-06T14:17:05.909Z,101313
2018-05-06T14:19:38.374Z,101323
2018-05-06T14:22:06.708Z,101309
2018-05-06T14:24:34.890Z,101314
2018-05-06T14:27:03.095Z,101316
2018-05-06T14:29:31.361Z,101319
2018-05-06T14:31:59.600Z,101310
2018-05-06T14:34:27.825Z,101311
2018-05-06T14:36:56.815Z,101319
2018-05-06T14:39:24.999Z,101317
2018-05-06T14:44:54.168Z,101310
2018-05-06T14:47:43.096Z,101305
2018-05-06T14:50:11.401Z,101310
2018-05-06T14:52:39.623Z,101305
2018-05-06T14:55:08.596Z,101306
2018-05-06T14:57:36.881Z,101298
2018-05-06T15:00:05.091Z,101308
2018-05-06T15:02:33.281Z,101305
2018-05-06T15:05:01.768Z,101307
2018-05-06T15:07:30.051Z,101309
2018-05-06T15:09:58.369Z,101299
2018-05-06T15:12:26.645Z,101296
2018-05-06T15:14:54.836Z,101303
2018-05-06T15:17:23.840Z,101302
2018-05-06T15:19:52.218Z,101304
2018-05-06T15:22:20.581Z,101299
2018-05-06T15:24:49.560Z,101301
2018-05-06T15:27:17.765Z,101298
2018-05-06T15:32:47.553Z,101299
2018-05-06T15:35:15.785Z,101293
2018-05-06T15:37:44.014Z,101289
2018-05-06T15:40:12.283Z,101290
2018-05-06T15:42:40.559Z,101289
2018-05-06T15:45:08.763Z,101287
2018-05-06T15:47:37.710Z,101297
2018-05-06T15:50:05.938Z,101296
2018-05-06T15:52:37.531Z,101293
2018-05-06T15:55:05.725Z,101296
2018-05-06T15:57:37.908Z,101291
2018-05-06T16:00:07.282Z,101293
2018-05-06T16:05:45.388Z,101292
2018-05-06T16:08:13.621Z,101285
2018-05-06T16:10:42.569Z,101285
2018-05-06T16:13:10.746Z,101288
2018-05-06T16:15:39.070Z,101280
2018-05-06T16:18:08.039Z,101288
2018-05-06T16:20:37.743Z,101285
2018-05-06T16:23:05.957Z,101285
2018-05-06T16:25:37.058Z,101281
2018-05-06T16:28:05.278Z,101276
2018-05-06T16:30:33.606Z,101284
2018-05-06T16:33:01.883Z,101283
2018-05-06T16:35:30.162Z,101290
2018-05-06T16:37:58.427Z,101281
2018-05-06T16:40:36.519Z,101281
2018-05-06T16:43:04.814Z,101275
2018-05-06T16:45:39.383Z,101276
2018-05-06T16:48:07.624Z,101289
2018-05-06T16:50:35.848Z,101286
2018-05-06T16:53:04.038Z,101287
2018-05-06T16:55:32.251Z,101278
2018-05-06T16:58:01.238Z,101279
2018-05-06T17:00:29.459Z,101283
2018-05-06T17:02:57.631Z,101280
2018-05-06T17:05:25.819Z,101274
2018-05-06T17:07:54.142Z,101284
2018-05-06T17:10:36.646Z,101288
2018-05-06T17:13:04.860Z,101290
2018-05-06T17:15:33.153Z,101287
2018-05-06T17:18:01.359Z,101290
2018-05-06T17:20:29.600Z,101291
2018-05-06T17:22:57.778Z,101285
2018-05-06T17:25:26.059Z,101285
2018-05-06T17:27:54.399Z,101289
2018-05-06T17:30:36.649Z,101289
2018-05-06T17:33:04.874Z,101295
2018-05-06T17:35:39.571Z,101283
2018-05-06T17:38:07.946Z,101302
2018-05-06T17:40:37.271Z,101290
2018-05-06T17:43:06.222Z,101292
2018-05-06T17:45:37.338Z,101296
2018-05-06T17:48:05.622Z,101287
2018-05-06T17:50:37.051Z,101297
2018-05-06T17:53:05.324Z,101297
2018-05-06T17:55:33.662Z,101305
2018-05-06T18:04:03.914Z,101313
2018-05-06T18:06:32.110Z,101306
2018-05-06T18:09:01.377Z,101312
2018-05-06T18:11:30.065Z,101317
2018-05-06T18:13:58.871Z,101314
2018-05-06T18:16:37.386Z,101321
2018-05-06T18:19:05.623Z,101326
2018-05-06T18:24:28.005Z,101326
2018-05-06T18:26:56.255Z,101324
2018-05-06T18:29:37.848Z,101327
2018-05-06T18:32:06.060Z,101323
2018-05-06T18:34:35.062Z,101319
2018-05-06T18:37:04.078Z,101324
2018-05-06T18:39:32.858Z,101322
2018-05-06T18:42:01.826Z,101324
2018-05-06T18:44:36.858Z,101323
2018-05-06T18:47:05.999Z,101327
2018-05-06T18:49:37.702Z,101338
2018-05-06T18:52:05.995Z,101334
2018-05-06T18:54:34.974Z,101343
2018-05-06T18:57:03.316Z,101341
2018-05-06T18:59:31.533Z,101343
2018-05-06T19:05:01.930Z,101341
2018-05-06T19:07:30.173Z,101344
2018-05-06T19:09:59.203Z,101342
2018-05-06T19:12:27.737Z,101344
2018-05-06T19:14:56.020Z,101339
2018-05-06T19:17:38.471Z,101333
2018-05-06T19:20:06.691Z,101346
2018-05-06T19:22:35.692Z,101350
2018-05-06T19:25:04.679Z,101342
2018-05-06T19:27:40.200Z,101342
2018-05-06T19:30:08.451Z,101339
2018-05-06T19:32:36.718Z,101338
2018-05-06T19:35:04.855Z,101345
2018-05-06T19:37:33.955Z,101341
2018-05-06T19:40:03.138Z,101339
2018-05-06T19:42:32.150Z,101344
2018-05-06T19:48:00.617Z,101355
2018-05-06T19:50:37.094Z,101355
2018-05-06T19:53:05.384Z,101358
2018-05-06T19:55:38.337Z,101357
2018-05-06T19:58:06.584Z,101350
2018-05-06T20:00:34.765Z,101351
2018-05-06T20:03:04.033Z,101351
2018-05-06T20:05:32.281Z,101362
2018-05-06T20:08:00.481Z,101359
2018-05-06T20:10:29.467Z,101359
2018-05-06T20:15:59.705Z,101358
2018-05-06T20:18:28.771Z,101364
2018-05-06T20:20:57.787Z,101361
2018-05-06T20:26:27.559Z,101363
2018-05-06T20:28:55.786Z,101361
2018-05-06T20:31:24.855Z,101370
2018-05-06T20:33:53.033Z,101352
2018-05-06T20:36:36.324Z,101364
2018-05-06T20:39:04.668Z,101361
2018-05-06T20:41:37.497Z,101368
2018-05-06T20:44:05.772Z,101355
2018-05-06T20:46:33.995Z,101356
2018-05-06T20:49:02.976Z,101347
2018-05-06T20:51:31.981Z,101352
2018-05-06T20:54:02.415Z,101360
2018-05-06T20:59:51.019Z,101357
2018-05-06T21:02:24.449Z,101359
2018-05-06T21:04:52.647Z,101356
2018-05-06T21:07:21.590Z,101346
2018-05-06T21:09:50.618Z,101361
2018-05-06T21:12:18.799Z,101363
2018-05-06T21:14:47.786Z,101368
2018-05-06T21:17:16.013Z,101356
2018-05-06T21:19:44.228Z,101361
2018-05-06T21:22:12.421Z,101359
2018-05-06T21:24:41.490Z,101358
2018-05-06T21:27:09.838Z,101357
2018-05-06T21:29:38.061Z,101344
2018-05-06T21:32:07.079Z,101358
2018-05-06T21:34:35.250Z,101343
2018-05-06T21:40:04.235Z,101346
2018-05-06T21:42:32.511Z,101345
2018-05-06T21:45:00.892Z,101350
2018-05-06T21:47:29.090Z,101348
2018-05-06T21:49:58.780Z,101344
2018-05-06T21:52:27.735Z,101344
2018-05-06T21:54:57.054Z,101350
2018-05-06T21:57:25.237Z,101341
2018-05-06T22:02:54.127Z,101356
2018-05-06T22:05:22.407Z,101364
2018-05-06T22:07:50.750Z,101365
2018-05-06T22:10:38.690Z,101366
2018-05-06T22:13:06.967Z,101360
2018-05-06T22:15:35.187Z,101367
2018-05-06T22:18:03.541Z,101365
2018-05-06T22:20:31.738Z,101361
2018-05-06T22:22:59.923Z,101363
2018-05-06T22:25:28.899Z,101358
2018-05-06T22:27:57.090Z,101360
2018-05-06T22:30:26.058Z,101361
2018-05-06T22:32:54.326Z,101357
2018-05-06T22:35:22.502Z,101358
2018-05-06T22:37:52.212Z,101355
2018-05-06T22:40:22.021Z,101360
2018-05-06T22:45:50.634Z,101359
2018-05-06T22:48:18.869Z,101355
2018-05-06T22:50:47.059Z,101346
2018-05-06T22:53:15.344Z,101349
2018-05-06T22:58:43.762Z,101337
2018-05-06T23:01:11.944Z,101344
2018-05-06T23:03:40.890Z,101335
2018-05-06T23:06:35.566Z,101343
2018-05-06T23:09:03.748Z,101332
2018-05-06T23:11:38.105Z,101335
2018-05-06T23:14:06.277Z,101336
2018-05-06T23:16:37.836Z,101339
2018-05-06T23:19:06.029Z,101342
2018-05-06T23:21:35.005Z,101334
2018-05-06T23:24:03.994Z,101333
2018-05-06T23:26:32.172Z,101333
2018-05-06T23:29:01.131Z,101333
2018-05-06T23:31:29.350Z,101328
2018-05-06T23:33:58.288Z,101333
2018-05-06T23:36:27.309Z,101336
2018-05-06T23:38:55.529Z,101333
2018-05-06T23:41:23.703Z,101327
2018-05-06T23:46:53.375Z,101335
2018-05-06T23:49:36.913Z,101333
2018-05-06T23:52:05.198Z,101327
2018-05-06T23:54:33.470Z,101330
